createdAt,value
2022-08-05T00:00:11.497Z,24.7
2022-08-05T00:03:12.507Z,24.6
2022-08-05T00:04:30.730Z,24.5
2022-08-05T00:06:13.529Z,24.5
2022-08-05T00:09:14.571Z,24.4
2022-08-05T00:12:15.585Z,24.3
2022-08-05T00:15:16.597Z,24.2
2022-08-05T00:18:17.634Z,24.3
2022-08-05T00:21:18.644Z,24.4
2022-08-05T00:24:19.675Z,24.5
2022-08-05T00:27:20.698Z,24.6
2022-08-05T00:30:21.714Z,24.6
2022-08-05T00:33:22.730Z,24.5
2022-08-05T00:34:40.965Z,24.3
2022-08-05T00:36:23.768Z,24.3
2022-08-05T00:39:24.779Z,24.2
2022-08-05T00:42:25.815Z,23.9
2022-08-05T00:45:26.836Z,23.7
2022-08-05T00:48:27.847Z,23.5
2022-08-05T00:51:28.867Z,23.4
2022-08-05T00:54:29.901Z,23.3
2022-08-05T00:57:30.000Z,23.2
2022-08-05T01:00:31.935Z,23.1
2022-08-05T01:03:32.956Z,23
2022-08-05T01:04:51.217Z,22.9
2022-08-05T01:06:33.996Z,22.9
2022-08-05T01:12:36.036Z,22.7
2022-08-05T01:18:38.075Z,22.5
2022-08-05T01:21:39.108Z,22.3
2022-08-05T01:27:41.155Z,22.2
2022-08-05T01:30:42.170Z,22.2
2022-08-05T01:33:43.181Z,22.1
2022-08-05T01:35:01.443Z,22.2
2022-08-05T01:36:44.207Z,22.1
2022-08-05T01:39:45.243Z,22.1
2022-08-05T01:42:46.255Z,22.1
2022-08-05T01:45:47.279Z,22
2022-08-05T01:48:48.306Z,22
2022-08-05T01:51:49.327Z,22
2022-08-05T01:54:50.344Z,21.9
2022-08-05T01:57:51.377Z,21.9
2022-08-05T02:00:52.402Z,21.8
2022-08-05T02:03:53.417Z,21.7
2022-08-05T02:05:11.699Z,21.7
2022-08-05T02:06:54.436Z,21.7
2022-08-05T02:09:55.454Z,21.6
2022-08-05T02:12:56.494Z,21.6
2022-08-05T02:15:57.506Z,21.5
2022-08-05T02:18:58.538Z,21.5
2022-08-05T02:21:59.545Z,21.4
2022-08-05T02:28:01.600Z,21.2
2022-08-05T02:31:02.627Z,21.2
2022-08-05T02:34:03.636Z,21.1
2022-08-05T02:35:21.930Z,21.1
2022-08-05T02:37:04.666Z,21
2022-08-05T02:40:05.695Z,21
2022-08-05T02:43:06.712Z,20.9
2022-08-05T02:46:07.735Z,20.8
2022-08-05T02:49:08.753Z,20.7
2022-08-05T02:55:10.789Z,20.6
2022-08-05T02:58:11.825Z,20.6
2022-08-05T03:01:12.836Z,20.5
2022-08-05T03:04:13.873Z,20.4
2022-08-05T03:05:32.183Z,20.4
2022-08-05T03:07:14.882Z,20.4
2022-08-05T03:10:15.919Z,20.4
2022-08-05T03:13:16.937Z,20.4
2022-08-05T03:16:17.962Z,20.4
2022-08-05T03:19:18.980Z,20.3
2022-08-05T03:22:19.998Z,20.3
2022-08-05T03:25:21.030Z,20.2
2022-08-05T03:28:22.041Z,20.2
2022-08-05T03:34:24.101Z,19.9
2022-08-05T03:35:42.431Z,19.9
2022-08-05T03:37:25.106Z,19.9
2022-08-05T03:43:27.170Z,19.9
2022-08-05T03:46:28.175Z,19.9
2022-08-05T03:49:29.205Z,19.9
2022-08-05T03:52:30.230Z,19.9
2022-08-05T04:01:33.288Z,20
2022-08-05T04:05:52.673Z,20
2022-08-05T04:07:35.346Z,20.1
2022-08-05T04:10:36.000Z,20.1
2022-08-05T04:13:37.390Z,20.2
2022-08-05T04:16:38.405Z,20.4
2022-08-05T04:19:39.435Z,20.4
2022-08-05T04:22:40.445Z,20.6
2022-08-05T04:28:42.498Z,20.8
2022-08-05T04:31:43.509Z,20.9
2022-08-05T04:34:44.534Z,20.9
2022-08-05T04:36:02.913Z,21
2022-08-05T04:37:45.567Z,21
2022-08-05T04:40:46.580Z,21.1
2022-08-05T04:43:47.597Z,21.2
2022-08-05T04:46:48.638Z,21.2
2022-08-05T04:55:51.689Z,21.4
2022-08-05T05:04:54.762Z,21.6
2022-08-05T05:06:13.145Z,21.6
2022-08-05T05:07:55.795Z,21.6
2022-08-05T05:10:56.811Z,21.6
2022-08-05T05:13:57.829Z,21.6
2022-08-05T05:16:58.843Z,21.6
2022-08-05T05:19:59.869Z,21.6
2022-08-05T05:23:00.907Z,21.6
2022-08-05T05:26:01.913Z,21.6
2022-08-05T05:29:02.941Z,21.7
2022-08-05T05:32:03.957Z,21.8
2022-08-05T05:35:04.987Z,21.8
2022-08-05T05:36:23.385Z,21.9
2022-08-05T05:41:07.037Z,22
2022-08-05T05:44:08.050Z,22.1
2022-08-05T05:50:10.107Z,22.3
2022-08-05T05:53:11.117Z,22.4
2022-08-05T05:56:12.145Z,22.4
2022-08-05T05:59:13.176Z,22.6
2022-08-05T06:05:15.211Z,22.8
2022-08-05T06:06:33.642Z,22.9
2022-08-05T06:08:16.244Z,23
2022-08-05T06:11:17.254Z,23.1
2022-08-05T06:14:18.276Z,23.2
2022-08-05T06:17:19.298Z,23.4
2022-08-05T06:20:20.318Z,23.5
2022-08-05T06:23:21.343Z,23.7
2022-08-05T06:26:22.360Z,23.8
2022-08-05T06:29:23.400Z,24
2022-08-05T06:32:24.420Z,24.3
2022-08-05T06:35:25.443Z,24.5
2022-08-05T06:36:43.878Z,24.7
2022-08-05T06:38:26.461Z,24.7
2022-08-05T06:44:28.499Z,25
2022-08-05T06:50:30.556Z,25.1
2022-08-05T06:53:31.000Z,25.2
2022-08-05T06:56:32.596Z,25.1
2022-08-05T06:59:33.615Z,24.9
2022-08-05T07:02:34.644Z,24.7
2022-08-05T07:05:35.663Z,24.6
2022-08-05T07:06:54.131Z,24.4
2022-08-05T07:11:37.715Z,24.4
2022-08-05T07:20:40.779Z,24.5
2022-08-05T07:23:41.796Z,24.7
2022-08-05T07:29:43.844Z,25.1
2022-08-05T07:32:44.859Z,25.2
2022-08-05T07:35:45.883Z,25.3
2022-08-05T07:37:04.363Z,25.3
2022-08-05T07:38:46.909Z,25.3
2022-08-05T07:41:47.937Z,25.4
2022-08-05T07:44:48.969Z,25.6
2022-08-05T07:47:49.987Z,25.9
2022-08-05T07:50:51.006Z,26
2022-08-05T07:53:52.027Z,26
2022-08-05T07:56:53.056Z,26
2022-08-05T07:59:54.064Z,25.9
2022-08-05T08:02:55.088Z,25.9
2022-08-05T08:05:56.114Z,26
2022-08-05T08:07:14.612Z,26.1
2022-08-05T08:14:59.198Z,26.3
2022-08-05T08:18:00.210Z,26.5
2022-08-05T08:21:01.238Z,26.7
2022-08-05T08:24:02.261Z,27.1
2022-08-05T08:30:04.292Z,27.3
2022-08-05T08:33:05.328Z,27.2
2022-08-05T08:36:06.350Z,27.1
2022-08-05T08:37:24.867Z,27
2022-08-05T08:40:45.161Z,26.9
2022-08-05T08:42:15.683Z,26.8
2022-08-05T08:43:46.181Z,26.7
2022-08-05T08:45:16.690Z,26.7
2022-08-05T08:46:47.221Z,26.6
2022-08-05T08:49:48.232Z,26.5
2022-08-05T08:51:18.751Z,26.4
2022-08-05T08:52:49.260Z,26.5
2022-08-05T08:54:19.755Z,26.5
2022-08-05T08:55:50.290Z,26.6
2022-08-05T09:01:52.335Z,27
2022-08-05T09:04:53.360Z,27.4
2022-08-05T09:06:23.851Z,27.6
2022-08-05T09:07:40.929Z,27.6
2022-08-05T09:08:58.021Z,27.6
2022-08-05T09:10:28.523Z,27.8
2022-08-05T09:11:59.036Z,27.8
2022-08-05T09:13:29.556Z,27.8
2022-08-05T09:15:00.064Z,27.9
2022-08-05T09:18:59.746Z,27.9
2022-08-05T09:22:00.792Z,27.9
2022-08-05T09:23:18.763Z,27.9
2022-08-05T09:25:01.790Z,27.9
2022-08-05T09:28:02.830Z,28
2022-08-05T09:31:03.000Z,28.1
2022-08-05T09:34:04.864Z,28.1
2022-08-05T09:37:05.882Z,28
2022-08-05T09:40:06.917Z,28
2022-08-05T09:43:07.942Z,28
2022-08-05T09:46:08.952Z,28
2022-08-05T09:49:09.977Z,28.1
2022-08-05T09:52:10.993Z,28
2022-08-05T09:53:29.014Z,28
2022-08-05T09:55:12.027Z,28
2022-08-05T09:58:13.041Z,28.1
2022-08-05T10:01:14.080Z,28.2
2022-08-05T10:04:15.116Z,28.5
2022-08-05T10:07:16.143Z,28.7
2022-08-05T10:10:17.127Z,28.9
2022-08-05T10:13:18.158Z,28.8
2022-08-05T10:16:19.196Z,28.7
2022-08-05T10:19:20.200Z,28.5
2022-08-05T10:22:21.224Z,28.5
2022-08-05T10:23:39.241Z,28.6
2022-08-05T10:25:22.263Z,28.7
2022-08-05T10:28:23.279Z,28.8
2022-08-05T10:31:24.313Z,28.9
2022-08-05T10:34:25.340Z,29
2022-08-05T10:40:27.365Z,29
2022-08-05T10:43:28.389Z,28.9
2022-08-05T10:46:29.408Z,28.9
2022-08-05T10:49:30.447Z,28.9
2022-08-05T10:52:31.453Z,29.1
2022-08-05T10:53:49.484Z,29.5
2022-08-05T10:55:32.485Z,29.7
2022-08-05T10:58:33.501Z,29.8
2022-08-05T11:01:34.536Z,29.9
2022-08-05T11:04:35.558Z,29.8
2022-08-05T11:07:36.603Z,29.5
2022-08-05T11:10:37.601Z,29.5
2022-08-05T11:13:38.628Z,29.6
2022-08-05T11:16:39.666Z,29.7
2022-08-05T11:19:40.665Z,29.8
2022-08-05T11:22:41.703Z,30
2022-08-05T11:23:59.743Z,30.1
2022-08-05T11:25:42.739Z,30.2
2022-08-05T11:28:43.733Z,30.2
2022-08-05T11:31:44.767Z,30.1
2022-08-05T11:34:45.796Z,30.2
2022-08-05T11:37:45.988Z,30.2
2022-08-05T11:40:55.106Z,30.6
2022-08-05T11:42:25.629Z,30.7
2022-08-05T11:45:26.636Z,30.7
2022-08-05T11:46:57.169Z,30.7
2022-08-05T11:48:27.686Z,30.7
2022-08-05T11:49:58.192Z,30.7
2022-08-05T11:51:28.685Z,30.7
2022-08-05T11:52:59.199Z,30.7
2022-08-05T11:54:16.281Z,30.7
2022-08-05T11:55:32.917Z,30.7
2022-08-05T11:57:03.428Z,30.7
2022-08-05T11:58:33.949Z,30.7
2022-08-05T12:01:34.985Z,30.8
2022-08-05T12:04:35.986Z,31.1
2022-08-05T12:06:06.507Z,31.4
2022-08-05T12:07:37.032Z,31.5
2022-08-05T12:09:07.548Z,31.7
2022-08-05T12:10:24.609Z,31.8
2022-08-05T12:11:41.418Z,31.9
2022-08-05T12:13:20.038Z,32
2022-08-05T12:14:50.000Z,31.9
2022-08-05T12:16:21.078Z,31.9
2022-08-05T12:17:51.563Z,31.9
2022-08-05T12:19:22.103Z,32
2022-08-05T12:20:52.585Z,32.1
2022-08-05T12:22:23.096Z,32.2
2022-08-05T12:23:53.645Z,32.1
2022-08-05T12:25:24.130Z,32.2
2022-08-05T12:27:58.283Z,32.4
2022-08-05T12:29:28.797Z,32.5
2022-08-05T12:30:59.297Z,32.5
2022-08-05T12:32:29.806Z,32.5
2022-08-05T12:34:00.342Z,32.5
2022-08-05T12:35:30.866Z,32.4
2022-08-05T12:37:01.344Z,32.3
2022-08-05T12:38:31.859Z,32.3
2022-08-05T12:40:02.371Z,32.2
2022-08-05T12:41:32.897Z,32.1
2022-08-05T12:42:49.979Z,32
2022-08-05T12:44:06.787Z,31.9
2022-08-05T12:45:45.380Z,31.7
2022-08-05T12:47:15.894Z,31.7
2022-08-05T12:48:46.446Z,31.6
2022-08-05T12:50:16.947Z,31.6
2022-08-05T12:51:47.444Z,31.7
2022-08-05T12:53:17.944Z,31.7
2022-08-05T12:54:48.476Z,31.7
2022-08-05T12:56:18.974Z,31.9
2022-08-05T12:57:49.484Z,31.9
2022-08-05T12:59:06.567Z,32.1
2022-08-05T13:00:23.214Z,32.2
2022-08-05T13:03:24.218Z,32.4
2022-08-05T13:04:54.764Z,32.5
2022-08-05T13:07:55.757Z,32.8
2022-08-05T13:09:26.302Z,32.9
2022-08-05T13:10:56.784Z,33
2022-08-05T13:12:27.310Z,33
2022-08-05T13:13:57.829Z,32.9
2022-08-05T13:15:14.916Z,32.9
2022-08-05T13:18:02.000Z,32.7
2022-08-05T13:19:32.986Z,32.6
2022-08-05T13:22:34.002Z,32.4
2022-08-05T13:24:04.545Z,32.3
2022-08-05T13:25:35.030Z,32.2
2022-08-05T13:27:05.552Z,32.2
2022-08-05T13:28:36.051Z,32.1
2022-08-05T13:30:06.565Z,32
2022-08-05T13:31:23.641Z,31.9
2022-08-05T13:34:11.237Z,31.7
2022-08-05T13:37:12.249Z,31.6
2022-08-05T13:38:42.768Z,31.6
2022-08-05T13:41:43.791Z,31.5
2022-08-05T13:43:14.314Z,31.5
2022-08-05T13:44:44.813Z,31.5
2022-08-05T13:46:15.358Z,31.4
2022-08-05T13:47:32.427Z,31.4
2022-08-05T13:48:49.488Z,31.3
2022-08-05T13:51:50.501Z,31.4
2022-08-05T13:53:21.022Z,31.4
2022-08-05T13:57:20.722Z,31.4
2022-08-05T14:00:21.748Z,31.4
2022-08-05T14:02:38.486Z,31.4
2022-08-05T14:06:57.462Z,31.4
2022-08-05T14:09:58.486Z,31.5
2022-08-05T14:12:59.514Z,31.7
2022-08-05T14:16:00.531Z,31.8
2022-08-05T14:19:01.545Z,31.9
2022-08-05T14:22:02.583Z,32
2022-08-05T14:28:04.641Z,31.9
2022-08-05T14:31:05.679Z,31.7
2022-08-05T14:32:48.732Z,31.6
2022-08-05T14:34:06.847Z,31.5
2022-08-05T14:37:07.874Z,31.5
2022-08-05T14:43:09.929Z,31.3
2022-08-05T14:46:10.947Z,31.3
2022-08-05T14:52:12.987Z,31.4
2022-08-05T14:55:14.009Z,31.4
2022-08-05T15:01:16.065Z,31.5
2022-08-05T15:02:58.990Z,31.4
2022-08-05T15:04:17.090Z,31.4
2022-08-05T15:10:19.134Z,31.4
2022-08-05T15:13:20.172Z,31.2
2022-08-05T15:16:21.167Z,31.2
2022-08-05T15:19:22.208Z,31
2022-08-05T15:22:23.240Z,31
2022-08-05T15:28:25.290Z,31
2022-08-05T15:31:26.314Z,30.9
2022-08-05T15:33:09.232Z,30.9
2022-08-05T15:34:27.308Z,31
2022-08-05T15:37:28.355Z,31
2022-08-05T15:40:29.390Z,31
